Avon Heights, Pennsylvania
Current Conditions -  °F | °C
As of 8:58 PM on Thursday 20 Nov 2014 (Local Time) from KMUI Reporting Station
Clear Clear  
Wind Chill: 22°   Ceiling: Unl
Heat Index: 29°   Visibility: 10mi
Dew Point:   Wind: 8mph
Humidity: 41%   Direction: 240°WSW
Pressure: 30.05"   Gusts: NA
Location:  40.2957°N, 76.4189°W
Report Text: KMUI 210158Z AUTO 24007KT 10SM CLR M01/M13 A3005 RMK AO2 SLP184 T10141133 $
Loading
Personal Weather Stations






























Interactive Weather Map New forecast layout! Learn more

10-Day Weather Forecast

Advertisements
Track Severe Weather on mobile